createdAt,value
2022-08-24T00:00:10.535Z,1.33
2022-08-24T00:02:37.462Z,1.25
2022-08-24T00:05:04.793Z,1.20
2022-08-24T00:07:31.846Z,1.40
2022-08-24T00:10:00.135Z,1.20
2022-08-24T00:12:27.703Z,1.13
2022-08-24T00:14:55.167Z,1.33
2022-08-24T00:17:22.158Z,1.10
2022-08-24T00:19:49.062Z,1.50
2022-08-24T00:22:15.991Z,1.30
2022-08-24T00:24:42.851Z,1.13
2022-08-24T00:27:09.797Z,1.25
2022-08-24T00:29:36.843Z,1.20
2022-08-24T00:32:03.969Z,1.35
2022-08-24T00:34:31.757Z,1.38
2022-08-24T00:36:58.679Z,1.20
2022-08-24T00:39:25.728Z,1.35
2022-08-24T00:41:53.165Z,1.20
2022-08-24T00:44:20.687Z,1.33
2022-08-24T00:46:58.307Z,1.20
2022-08-24T00:49:37.890Z,1.10
2022-08-24T00:52:22.757Z,1.10
2022-08-24T00:54:53.080Z,1.27
2022-08-24T00:57:22.158Z,0.93
2022-08-24T00:59:52.803Z,1.20
2022-08-24T01:02:42.148Z,1.35
2022-08-24T01:05:10.286Z,1.10
2022-08-24T01:07:38.186Z,1.20
2022-08-24T01:10:08.466Z,1.00
2022-08-24T01:12:37.055Z,1.20
2022-08-24T01:15:05.379Z,1.63
2022-08-24T01:17:50.924Z,1.20
2022-08-24T01:20:18.837Z,1.00
2022-08-24T01:22:48.910Z,0.98
2022-08-24T01:25:16.110Z,1.10
2022-08-24T01:27:44.084Z,1.10
2022-08-24T01:30:13.807Z,1.17
2022-08-24T01:32:41.846Z,1.20
2022-08-24T01:35:09.493Z,1.20
2022-08-24T01:37:36.873Z,1.30
2022-08-24T01:40:07.570Z,1.00
2022-08-24T01:42:35.173Z,1.13
2022-08-24T01:45:02.569Z,1.00
2022-08-24T01:47:29.628Z,1.05
2022-08-24T01:49:56.751Z,1.30
2022-08-24T01:52:25.611Z,1.10
2022-08-24T01:54:53.891Z,1.30
2022-08-24T01:57:23.734Z,1.13
2022-08-24T01:59:50.669Z,1.33
2022-08-24T02:02:26.337Z,1.25
2022-08-24T02:04:53.200Z,1.50
2022-08-24T02:07:20.240Z,1.35
2022-08-24T02:09:47.902Z,1.15
2022-08-24T02:12:15.089Z,1.30
2022-08-24T02:14:42.098Z,1.23
2022-08-24T02:17:09.657Z,1.30
2022-08-24T02:19:37.119Z,1.20
2022-08-24T02:22:06.090Z,1.10
2022-08-24T02:24:33.414Z,1.10
2022-08-24T02:27:00.308Z,1.20
2022-08-24T02:29:27.447Z,1.33
2022-08-24T02:31:54.489Z,1.33
2022-08-24T02:34:21.739Z,1.20
2022-08-24T02:36:48.632Z,1.33
2022-08-24T02:39:15.972Z,1.55
2022-08-24T02:41:42.804Z,1.58
2022-08-24T02:44:09.656Z,1.50
2022-08-24T02:46:37.033Z,1.50
2022-08-24T02:49:11.011Z,1.92
2022-08-24T02:51:43.999Z,1.70
2022-08-24T02:54:13.011Z,1.95
2022-08-24T02:56:40.137Z,1.80
2022-08-24T02:59:07.106Z,1.65
2022-08-24T03:01:34.010Z,2.00
2022-08-24T03:04:01.010Z,1.85
2022-08-24T03:06:27.931Z,1.75
2022-08-24T03:08:56.804Z,1.60
2022-08-24T03:11:28.377Z,1.70
2022-08-24T03:13:56.212Z,2.00
2022-08-24T03:16:23.143Z,2.20
2022-08-24T03:18:50.110Z,2.20
2022-08-24T03:21:17.062Z,2.28
2022-08-24T03:23:44.133Z,3.05
2022-08-24T03:26:11.400Z,2.63
2022-08-24T03:28:38.359Z,2.50
2022-08-24T03:31:05.425Z,2.20
2022-08-24T03:33:32.693Z,2.80
2022-08-24T03:35:59.747Z,2.90
2022-08-24T03:38:26.649Z,3.00
2022-08-24T03:40:53.615Z,2.90
2022-08-24T03:43:38.919Z,2.67
2022-08-24T03:46:07.694Z,3.45
2022-08-24T03:48:35.077Z,3.35
2022-08-24T03:51:02.083Z,3.53
2022-08-24T03:53:29.021Z,3.95
2022-08-24T03:55:55.963Z,3.85
2022-08-24T03:58:22.879Z,3.75
2022-08-24T04:00:50.331Z,4.15
2022-08-24T04:03:17.295Z,5.10
2022-08-24T04:05:44.293Z,4.72
2022-08-24T04:08:11.227Z,5.18
2022-08-24T04:10:38.476Z,4.03
2022-08-24T04:13:08.633Z,5.18
2022-08-24T04:15:39.309Z,4.40
2022-08-24T04:18:06.308Z,4.13
2022-08-24T04:20:38.186Z,4.07
2022-08-24T04:23:05.467Z,4.07
2022-08-24T04:25:38.407Z,3.70
2022-08-24T04:28:06.829Z,3.40
2022-08-24T04:30:33.714Z,3.67
2022-08-24T04:33:00.596Z,3.58
2022-08-24T04:35:27.539Z,3.88
2022-08-24T04:37:54.445Z,3.50
2022-08-24T04:40:21.330Z,3.47
2022-08-24T04:42:48.486Z,3.50
2022-08-24T04:45:15.981Z,3.88
2022-08-24T04:47:44.601Z,2.97
2022-08-24T04:50:12.002Z,2.60
2022-08-24T04:52:39.209Z,2.60
2022-08-24T04:55:07.616Z,2.17
2022-08-24T04:57:35.336Z,2.15
2022-08-24T05:00:03.311Z,1.67
2022-08-24T05:02:30.632Z,2.20
2022-08-24T05:04:58.774Z,1.92
2022-08-24T05:07:26.021Z,1.90
2022-08-24T05:09:53.087Z,2.15
2022-08-24T05:12:21.003Z,1.77
2022-08-24T05:14:47.862Z,1.75
2022-08-24T05:17:14.785Z,1.70
2022-08-24T05:19:41.677Z,1.80
2022-08-24T05:22:08.553Z,2.00
2022-08-24T05:24:35.397Z,2.10
2022-08-24T05:27:02.347Z,1.58
2022-08-24T05:29:29.887Z,1.52
2022-08-24T05:31:56.994Z,1.70
2022-08-24T05:34:24.221Z,1.63
2022-08-24T05:36:51.164Z,1.52
2022-08-24T05:39:18.310Z,1.30
2022-08-24T05:41:46.392Z,1.55
2022-08-24T05:44:14.142Z,1.90
2022-08-24T05:46:44.198Z,1.40
2022-08-24T05:49:11.520Z,1.58
2022-08-24T05:51:38.652Z,1.73
2022-08-24T05:54:06.494Z,1.50
2022-08-24T05:56:33.458Z,1.48
2022-08-24T05:59:00.748Z,1.55
2022-08-24T06:01:27.727Z,1.30
2022-08-24T06:03:55.827Z,1.85
2022-08-24T06:06:23.496Z,1.58
2022-08-24T06:08:52.395Z,1.83
2022-08-24T06:11:29.767Z,1.60
2022-08-24T06:13:59.071Z,1.50
2022-08-24T06:16:26.423Z,1.55
2022-08-24T06:18:54.041Z,1.55
2022-08-24T06:21:22.314Z,1.60
2022-08-24T06:23:51.212Z,1.65
2022-08-24T06:26:37.624Z,1.50
2022-08-24T06:29:05.163Z,1.60
2022-08-24T06:31:39.368Z,1.73
2022-08-24T06:34:07.511Z,1.60
2022-08-24T06:36:34.371Z,1.50
2022-08-24T06:39:01.345Z,1.50
2022-08-24T06:41:28.260Z,1.90
2022-08-24T06:43:55.751Z,1.73
2022-08-24T06:46:25.670Z,2.38
2022-08-24T06:48:54.478Z,1.88
2022-08-24T06:51:22.732Z,1.50
2022-08-24T06:53:50.614Z,1.92
2022-08-24T06:56:18.179Z,2.00
2022-08-24T06:58:45.194Z,1.80
2022-08-24T07:01:13.329Z,1.70
2022-08-24T07:03:40.481Z,1.80
2022-08-24T07:06:07.705Z,2.22
2022-08-24T07:08:36.920Z,1.88
2022-08-24T07:11:04.491Z,1.52
2022-08-24T07:13:31.685Z,2.03
2022-08-24T07:15:59.037Z,1.70
2022-08-24T07:18:26.318Z,1.90
2022-08-24T07:20:53.975Z,1.50
2022-08-24T07:23:21.019Z,1.60
2022-08-24T07:25:51.264Z,1.50
2022-08-24T07:28:31.582Z,1.90
2022-08-24T07:30:59.140Z,1.73
2022-08-24T07:33:26.096Z,1.60
2022-08-24T07:35:56.136Z,1.50
2022-08-24T07:38:23.517Z,1.38
2022-08-24T07:43:40.981Z,1.50
2022-08-24T07:46:10.322Z,1.30
2022-08-24T07:48:37.278Z,1.20
2022-08-24T07:51:08.246Z,1.40
2022-08-24T07:53:52.602Z,1.20
2022-08-24T07:56:20.704Z,1.67
2022-08-24T07:58:48.369Z,1.35
2022-08-24T08:01:15.397Z,1.67
2022-08-24T08:03:42.299Z,1.45
2022-08-24T08:06:16.114Z,1.50
2022-08-24T08:08:43.552Z,1.50
2022-08-24T08:11:10.931Z,1.60
2022-08-24T08:13:38.283Z,1.48
2022-08-24T08:16:08.418Z,1.60
2022-08-24T08:18:35.903Z,1.70
2022-08-24T08:21:04.061Z,1.80
2022-08-24T08:23:50.126Z,1.80
2022-08-24T08:26:20.258Z,1.70
2022-08-24T08:28:47.485Z,1.90
2022-08-24T08:31:14.402Z,2.00
2022-08-24T08:33:41.900Z,2.17
2022-08-24T08:36:12.806Z,2.17
2022-08-24T08:38:40.272Z,2.20
2022-08-24T08:41:17.865Z,1.90
2022-08-24T08:43:44.908Z,2.10
2022-08-24T08:46:30.731Z,1.85
2022-08-24T08:49:06.862Z,1.90
2022-08-24T08:51:41.847Z,1.90
2022-08-24T08:54:13.229Z,2.15
2022-08-24T08:57:06.458Z,2.03
2022-08-24T08:59:42.958Z,2.30
2022-08-24T09:02:22.338Z,1.80
2022-08-24T09:05:12.183Z,2.22
2022-08-24T09:07:46.293Z,2.05
2022-08-24T09:10:20.659Z,1.80
2022-08-24T09:12:47.567Z,1.80
2022-08-24T09:15:34.914Z,2.08
2022-08-24T09:18:14.025Z,1.80
2022-08-24T09:20:56.559Z,1.90
2022-08-24T09:23:26.691Z,1.60
2022-08-24T09:26:08.454Z,1.88
2022-08-24T09:28:50.792Z,1.70
2022-08-24T09:31:28.667Z,1.85
2022-08-24T09:34:21.922Z,1.80
2022-08-24T09:36:51.908Z,1.80
2022-08-24T09:39:41.767Z,2.00
2022-08-24T09:42:08.881Z,1.60
2022-08-24T09:44:39.732Z,1.90
2022-08-24T09:49:33.589Z,1.50
2022-08-24T09:52:21.624Z,1.55
2022-08-24T09:55:05.088Z,1.60
2022-08-24T10:00:17.614Z,1.58
2022-08-24T10:02:47.332Z,1.50
2022-08-24T10:05:31.352Z,1.50
2022-08-24T10:08:03.525Z,1.40
2022-08-24T10:10:36.511Z,1.35
2022-08-24T10:13:22.287Z,1.20
2022-08-24T10:16:17.026Z,1.58
2022-08-24T10:18:53.184Z,1.50
2022-08-24T10:21:20.089Z,1.20
2022-08-24T10:24:02.472Z,1.30
2022-08-24T10:26:39.016Z,1.30
2022-08-24T10:29:24.883Z,1.15
2022-08-24T10:32:01.537Z,1.35
2022-08-24T10:34:28.657Z,1.23
2022-08-24T10:37:07.932Z,0.90
2022-08-24T10:40:09.312Z,1.17
2022-08-24T10:42:55.255Z,1.00
2022-08-24T10:45:31.446Z,1.10
2022-08-24T10:48:17.497Z,1.05
2022-08-24T10:50:50.576Z,0.70
2022-08-24T10:53:27.147Z,0.95
2022-08-24T10:56:11.892Z,0.90
2022-08-24T10:58:39.319Z,1.10
2022-08-24T11:01:21.808Z,1.08
2022-08-24T11:03:53.679Z,0.90
2022-08-24T11:06:21.052Z,1.02
2022-08-24T11:08:55.605Z,1.17
2022-08-24T11:11:25.001Z,1.00
2022-08-24T11:13:54.152Z,1.00
2022-08-24T11:16:31.289Z,1.10
2022-08-24T11:21:40.498Z,1.20
2022-08-24T11:24:20.036Z,1.10
2022-08-24T11:26:53.778Z,0.90
2022-08-24T11:29:23.368Z,0.85
2022-08-24T11:31:52.785Z,0.93
2022-08-24T11:34:29.918Z,1.20
2022-08-24T11:39:34.417Z,0.95
2022-08-24T11:42:07.314Z,0.90
2022-08-24T11:44:39.539Z,0.70
2022-08-24T11:47:19.793Z,0.90
2022-08-24T11:49:52.262Z,1.00
2022-08-24T11:52:45.638Z,0.80
2022-08-24T11:55:12.501Z,0.90
2022-08-24T11:57:55.988Z,0.90
2022-08-24T12:00:24.952Z,1.30
2022-08-24T12:03:04.490Z,0.80
2022-08-24T12:05:44.912Z,0.80
2022-08-24T12:08:23.581Z,0.80
2022-08-24T12:10:50.450Z,0.90
2022-08-24T12:13:23.180Z,0.80
2022-08-24T12:16:01.637Z,0.90
2022-08-24T12:18:44.079Z,0.88
2022-08-24T12:21:13.282Z,0.90
2022-08-24T12:23:42.538Z,0.85
2022-08-24T12:26:12.236Z,0.98
2022-08-24T12:28:53.654Z,1.15
2022-08-24T12:31:23.544Z,0.70
2022-08-24T12:33:56.788Z,0.90
2022-08-24T12:36:38.800Z,0.93
2022-08-24T12:39:27.649Z,1.00
2022-08-24T12:42:21.935Z,1.10
2022-08-24T12:45:15.185Z,0.90
2022-08-24T12:48:05.353Z,0.90
2022-08-24T12:50:47.505Z,0.90
2022-08-24T12:53:18.004Z,0.88
2022-08-24T12:56:12.929Z,1.02
2022-08-24T12:58:54.656Z,1.15
2022-08-24T13:01:27.869Z,0.90
2022-08-24T13:04:22.857Z,0.95
2022-08-24T13:06:54.228Z,1.00
2022-08-24T13:09:45.014Z,0.90
2022-08-24T13:12:30.531Z,1.08
2022-08-24T13:15:16.151Z,1.20
2022-08-24T13:17:43.157Z,1.10
2022-08-24T13:20:23.949Z,1.10
2022-08-24T13:23:03.858Z,1.13
2022-08-24T13:25:51.811Z,1.10
2022-08-24T13:28:24.702Z,1.00
2022-08-24T13:30:57.859Z,1.00
2022-08-24T13:33:36.004Z,1.27
2022-08-24T13:36:26.034Z,1.40
2022-08-24T13:39:00.711Z,1.10
2022-08-24T13:41:46.210Z,1.08
2022-08-24T13:44:21.337Z,1.13
2022-08-24T13:46:53.982Z,1.10
2022-08-24T13:49:39.641Z,1.15
2022-08-24T13:52:22.543Z,1.08
2022-08-24T13:55:13.808Z,0.90
2022-08-24T13:58:06.510Z,1.00
2022-08-24T14:00:36.387Z,0.90
2022-08-24T14:03:09.293Z,0.98
2022-08-24T14:05:38.892Z,1.00
2022-08-24T14:08:11.759Z,1.33
2022-08-24T14:10:59.198Z,1.00
2022-08-24T14:13:47.746Z,1.13
2022-08-24T14:16:52.374Z,1.30
2022-08-24T14:19:48.746Z,1.00
2022-08-24T14:22:37.066Z,1.00
2022-08-24T14:25:24.263Z,0.90
2022-08-24T14:27:54.124Z,0.93
2022-08-24T14:30:23.464Z,0.90
2022-08-24T14:32:59.646Z,1.00
2022-08-24T14:35:32.627Z,1.20
2022-08-24T14:38:18.742Z,1.25
2022-08-24T14:40:51.793Z,1.17
2022-08-24T14:43:34.166Z,1.15
2022-08-24T14:46:19.966Z,1.20
2022-08-24T14:49:04.337Z,1.17
2022-08-24T14:51:37.258Z,1.02
2022-08-24T14:54:16.269Z,1.00
2022-08-24T14:56:46.174Z,1.23
2022-08-24T14:59:31.880Z,1.25
2022-08-24T15:02:17.485Z,1.20
2022-08-24T15:04:51.224Z,0.93
2022-08-24T15:07:21.296Z,1.23
2022-08-24T15:09:48.269Z,1.10
2022-08-24T15:12:29.078Z,1.30
2022-08-24T15:15:15.407Z,1.20
2022-08-24T15:17:59.885Z,1.20
2022-08-24T15:20:39.226Z,1.10
2022-08-24T15:23:24.911Z,1.20
2022-08-24T15:25:51.748Z,1.20
2022-08-24T15:28:26.939Z,1.27
2022-08-24T15:30:55.565Z,1.30
2022-08-24T15:33:22.589Z,1.10
2022-08-24T15:35:51.920Z,1.17
2022-08-24T15:38:30.849Z,1.27
2022-08-24T15:41:06.688Z,1.17
2022-08-24T15:43:35.903Z,1.13
2022-08-24T15:46:03.081Z,1.10
2022-08-24T15:48:30.735Z,1.10
2022-08-24T15:50:57.779Z,1.10
2022-08-24T15:53:28.274Z,1.10
2022-08-24T15:55:55.772Z,1.20
2022-08-24T15:58:25.584Z,1.30
2022-08-24T16:01:25.343Z,1.33
2022-08-24T16:03:54.049Z,1.48
2022-08-24T16:06:23.882Z,1.30
2022-08-24T16:08:56.601Z,1.00
2022-08-24T16:11:29.295Z,1.42
2022-08-24T16:13:56.278Z,1.45
2022-08-24T16:16:32.240Z,1.17
2022-08-24T16:19:01.355Z,1.20
2022-08-24T16:21:34.775Z,1.30
2022-08-24T16:24:11.158Z,1.33
2022-08-24T16:26:47.393Z,1.35
2022-08-24T16:29:34.649Z,1.42
2022-08-24T16:32:07.621Z,1.25
2022-08-24T16:34:34.883Z,1.40
2022-08-24T16:37:03.163Z,1.20
2022-08-24T16:39:30.036Z,1.40
2022-08-24T16:42:03.673Z,1.48
2022-08-24T16:44:38.848Z,1.30
2022-08-24T16:47:07.085Z,1.40
2022-08-24T16:49:34.606Z,1.20
2022-08-24T16:52:03.542Z,1.40
2022-08-24T16:54:31.490Z,1.30
2022-08-24T16:56:59.254Z,1.48
2022-08-24T16:59:29.203Z,1.40
2022-08-24T17:01:56.299Z,1.15
2022-08-24T17:04:23.269Z,1.58
2022-08-24T17:06:50.714Z,1.30
2022-08-24T17:09:18.035Z,1.20
2022-08-24T17:11:47.235Z,1.50
2022-08-24T17:14:14.561Z,1.50
2022-08-24T17:16:41.693Z,1.40
2022-08-24T17:19:13.064Z,1.40
2022-08-24T17:21:41.158Z,1.65
2022-08-24T17:24:09.042Z,1.45
2022-08-24T17:26:37.018Z,1.50
2022-08-24T17:29:12.026Z,1.45
2022-08-24T17:31:43.875Z,1.50
2022-08-24T17:34:14.161Z,1.45
2022-08-24T17:36:43.558Z,1.50
2022-08-24T17:39:11.416Z,1.52
2022-08-24T17:41:38.351Z,1.35
2022-08-24T17:44:06.646Z,1.42
2022-08-24T17:46:33.572Z,1.23
2022-08-24T17:49:00.531Z,1.40
2022-08-24T17:51:27.548Z,1.45
2022-08-24T17:53:54.517Z,1.38
2022-08-24T17:56:21.459Z,1.45
2022-08-24T17:59:07.165Z,1.50
2022-08-24T18:01:34.352Z,1.60
2022-08-24T18:04:01.211Z,1.50
2022-08-24T18:06:28.806Z,1.30
2022-08-24T18:08:59.069Z,1.50
2022-08-24T18:11:26.456Z,1.50
2022-08-24T18:13:54.539Z,1.48
2022-08-24T18:16:23.086Z,1.60
2022-08-24T18:18:50.642Z,1.40
2022-08-24T18:21:17.827Z,1.50
2022-08-24T18:23:44.746Z,1.30
2022-08-24T18:26:11.873Z,1.80
2022-08-24T18:28:38.895Z,5.75
2022-08-24T18:31:09.708Z,13.60
2022-08-24T18:33:36.556Z,11.18
2022-08-24T18:36:03.580Z,9.05
2022-08-24T18:38:30.520Z,6.88
2022-08-24T18:40:58.037Z,9.20
2022-08-24T18:43:25.016Z,25.08
2022-08-24T18:45:52.733Z,38.85
2022-08-24T18:48:21.004Z,34.08
2022-08-24T18:50:50.740Z,34.42
2022-08-24T18:53:17.802Z,25.95
2022-08-24T18:55:46.310Z,24.27
2022-08-24T18:58:13.263Z,24.45
2022-08-24T19:00:40.448Z,26.67
2022-08-24T19:03:07.860Z,30.20
2022-08-24T19:05:35.517Z,18.88
2022-08-24T19:08:02.640Z,13.20
2022-08-24T19:10:32.028Z,6.18
2022-08-24T19:13:00.336Z,3.20
2022-08-24T19:15:29.105Z,2.88
2022-08-24T19:18:06.738Z,2.33
2022-08-24T19:20:34.364Z,1.65
2022-08-24T19:23:07.186Z,2.00
2022-08-24T19:25:35.640Z,2.38
2022-08-24T19:28:03.319Z,1.63
2022-08-24T19:30:30.194Z,1.35
2022-08-24T19:32:57.855Z,1.52
2022-08-24T19:35:24.875Z,1.35
2022-08-24T19:37:52.033Z,1.27
2022-08-24T19:40:21.016Z,1.23
2022-08-24T19:42:53.671Z,1.50
2022-08-24T19:45:43.998Z,1.50
2022-08-24T19:48:12.199Z,1.33
2022-08-24T19:50:39.469Z,1.40
2022-08-24T19:53:06.841Z,1.30
2022-08-24T19:55:34.027Z,1.50
2022-08-24T19:58:06.637Z,1.50
2022-08-24T20:00:48.288Z,1.33
2022-08-24T20:03:18.830Z,1.42
2022-08-24T20:05:45.921Z,1.50
2022-08-24T20:08:13.134Z,1.38
2022-08-24T20:10:41.155Z,1.50
2022-08-24T20:13:08.091Z,1.70
2022-08-24T20:15:35.019Z,1.70
2022-08-24T20:18:02.540Z,1.67
2022-08-24T20:20:30.386Z,1.50
2022-08-24T20:23:06.642Z,1.80
2022-08-24T20:25:34.647Z,1.50
2022-08-24T20:28:27.837Z,1.77
2022-08-24T20:30:49.732Z,1.63
2022-08-24T20:33:17.798Z,1.60
2022-08-24T20:35:45.733Z,1.67
2022-08-24T20:38:14.586Z,1.55
2022-08-24T20:40:41.518Z,1.60
2022-08-24T20:43:08.368Z,1.67
2022-08-24T20:45:35.939Z,1.60
2022-08-24T20:48:03.908Z,1.55
2022-08-24T20:50:31.012Z,1.67
2022-08-24T20:52:58.169Z,1.60
2022-08-24T20:55:25.153Z,1.70
2022-08-24T20:57:53.423Z,1.80
2022-08-24T21:00:22.928Z,1.80
2022-08-24T21:02:50.359Z,1.42
2022-08-24T21:05:17.228Z,2.00
2022-08-24T21:07:49.721Z,1.40
2022-08-24T21:10:18.146Z,1.65
2022-08-24T21:12:45.661Z,1.70
2022-08-24T21:15:13.625Z,1.92
2022-08-24T21:17:41.708Z,1.60
2022-08-24T21:20:09.054Z,1.83
2022-08-24T21:22:36.991Z,1.67
2022-08-24T21:25:04.867Z,1.70
2022-08-24T21:27:35.203Z,1.70
2022-08-24T21:30:02.474Z,1.83
2022-08-24T21:32:47.795Z,1.90
2022-08-24T21:35:15.344Z,1.75
2022-08-24T21:37:42.347Z,2.10
2022-08-24T21:40:09.831Z,1.80
2022-08-24T21:42:37.098Z,2.00
2022-08-24T21:45:05.494Z,1.85
2022-08-24T21:47:32.358Z,1.80
2022-08-24T21:49:59.263Z,1.90
2022-08-24T21:52:26.189Z,2.00
2022-08-24T21:54:53.034Z,1.85
2022-08-24T21:57:19.907Z,2.15
2022-08-24T21:59:46.901Z,2.00
2022-08-24T22:02:16.916Z,2.10
2022-08-24T22:04:47.971Z,1.80
2022-08-24T22:07:24.335Z,1.90
2022-08-24T22:09:51.401Z,1.90
2022-08-24T22:12:18.808Z,1.95
2022-08-24T22:14:45.721Z,2.28
2022-08-24T22:17:12.658Z,2.20
2022-08-24T22:19:39.849Z,2.63
2022-08-24T22:22:06.807Z,3.05
2022-08-24T22:24:33.751Z,4.10
2022-08-24T22:27:00.654Z,4.70
2022-08-24T22:29:27.769Z,5.13
2022-08-24T22:31:55.154Z,3.72
2022-08-24T22:34:22.045Z,4.75
2022-08-24T22:36:49.466Z,4.40
2022-08-24T22:39:16.908Z,4.18
2022-08-24T22:41:44.090Z,3.78
2022-08-24T22:44:19.908Z,3.42
2022-08-24T22:46:54.368Z,3.72
2022-08-24T22:49:22.800Z,2.65
2022-08-24T22:51:49.849Z,3.08
2022-08-24T22:54:17.557Z,3.45
2022-08-24T22:56:45.854Z,3.30
2022-08-24T22:59:18.210Z,3.00
2022-08-24T23:01:46.836Z,2.88
2022-08-24T23:04:15.330Z,3.13
2022-08-24T23:06:42.495Z,2.72
2022-08-24T23:09:09.917Z,2.50
2022-08-24T23:11:37.289Z,2.70
2022-08-24T23:14:04.958Z,2.08
2022-08-24T23:16:33.283Z,2.20
2022-08-24T23:19:19.306Z,2.30
2022-08-24T23:21:46.673Z,2.47
2022-08-24T23:24:13.547Z,2.17
2022-08-24T23:26:41.587Z,2.22
2022-08-24T23:29:10.261Z,2.13
2022-08-24T23:31:37.409Z,2.40
2022-08-24T23:34:07.290Z,2.30
2022-08-24T23:36:35.363Z,2.15
2022-08-24T23:39:02.573Z,2.15
2022-08-24T23:41:33.213Z,2.22
2022-08-24T23:44:00.910Z,2.17
2022-08-24T23:46:27.996Z,2.15
2022-08-24T23:48:56.679Z,2.28
2022-08-24T23:51:24.856Z,2.20
2022-08-24T23:53:52.105Z,2.33
2022-08-24T23:56:20.541Z,2.20
2022-08-24T23:58:50.008Z,2.53
